sensor_id;sensor_type;location;lat;lon;timestamp;P1;durP1;ratioP1;P2;durP2;ratioP2
53411;SDS011;39307;52.870;13.660;2022-08-07T00:01:33;2.78;;;1.00;;
53411;SDS011;39307;52.870;13.660;2022-08-07T00:04:00;2.30;;;0.90;;
53411;SDS011;39307;52.870;13.660;2022-08-07T00:06:30;3.80;;;0.93;;
53411;SDS011;39307;52.870;13.660;2022-08-07T00:08:57;3.17;;;0.95;;
53411;SDS011;39307;52.870;13.660;2022-08-07T00:11:23;4.18;;;1.08;;
53411;SDS011;39307;52.870;13.660;2022-08-07T00:13:50;5.07;;;1.20;;
53411;SDS011;39307;52.870;13.660;2022-08-07T00:16:16;2.43;;;1.10;;
53411;SDS011;39307;52.870;13.660;2022-08-07T00:18:42;3.65;;;1.00;;
53411;SDS011;39307;52.870;13.660;2022-08-07T00:21:09;2.85;;;1.10;;
53411;SDS011;39307;52.870;13.660;2022-08-07T00:23:36;2.28;;;0.88;;
53411;SDS011;39307;52.870;13.660;2022-08-07T00:26:04;4.88;;;1.05;;
53411;SDS011;39307;52.870;13.660;2022-08-07T00:28:32;2.90;;;1.20;;
53411;SDS011;39307;52.870;13.660;2022-08-07T00:30:59;2.67;;;1.17;;
53411;SDS011;39307;52.870;13.660;2022-08-07T00:33:33;3.35;;;1.30;;
53411;SDS011;39307;52.870;13.660;2022-08-07T00:36:00;2.50;;;1.20;;
53411;SDS011;39307;52.870;13.660;2022-08-07T00:38:27;3.47;;;1.00;;
53411;SDS011;39307;52.870;13.660;2022-08-07T00:40:53;3.78;;;1.20;;
53411;SDS011;39307;52.870;13.660;2022-08-07T00:43:19;2.93;;;1.03;;
53411;SDS011;39307;52.870;13.660;2022-08-07T00:45:46;3.17;;;1.23;;
53411;SDS011;39307;52.870;13.660;2022-08-07T00:48:12;2.53;;;1.20;;
53411;SDS011;39307;52.870;13.660;2022-08-07T00:50:38;2.63;;;1.25;;
53411;SDS011;39307;52.870;13.660;2022-08-07T00:53:05;2.53;;;1.30;;
53411;SDS011;39307;52.870;13.660;2022-08-07T00:55:31;3.22;;;1.10;;
53411;SDS011;39307;52.870;13.660;2022-08-07T00:57:58;3.58;;;1.40;;
53411;SDS011;39307;52.870;13.660;2022-08-07T01:00:25;2.28;;;1.23;;
53411;SDS011;39307;52.870;13.660;2022-08-07T01:02:51;4.13;;;1.40;;
53411;SDS011;39307;52.870;13.660;2022-08-07T01:05:18;3.33;;;1.17;;
53411;SDS011;39307;52.870;13.660;2022-08-07T01:07:45;3.75;;;1.40;;
53411;SDS011;39307;52.870;13.660;2022-08-07T01:10:12;3.15;;;1.42;;
53411;SDS011;39307;52.870;13.660;2022-08-07T01:12:39;3.58;;;1.30;;
53411;SDS011;39307;52.870;13.660;2022-08-07T01:15:07;4.53;;;1.42;;
53411;SDS011;39307;52.870;13.660;2022-08-07T01:17:33;3.23;;;1.20;;
53411;SDS011;39307;52.870;13.660;2022-08-07T01:20:02;4.28;;;1.67;;
53411;SDS011;39307;52.870;13.660;2022-08-07T01:22:33;3.25;;;1.70;;
53411;SDS011;39307;52.870;13.660;2022-08-07T01:25:00;3.05;;;1.58;;
53411;SDS011;39307;52.870;13.660;2022-08-07T01:27:27;4.40;;;2.20;;
53411;SDS011;39307;52.870;13.660;2022-08-07T01:29:53;4.90;;;2.25;;
53411;SDS011;39307;52.870;13.660;2022-08-07T01:32:20;4.43;;;1.80;;
53411;SDS011;39307;52.870;13.660;2022-08-07T01:34:47;5.90;;;2.00;;
53411;SDS011;39307;52.870;13.660;2022-08-07T01:37:15;5.47;;;2.25;;
53411;SDS011;39307;52.870;13.660;2022-08-07T01:39:42;4.15;;;1.92;;
53411;SDS011;39307;52.870;13.660;2022-08-07T01:42:09;5.05;;;2.35;;
53411;SDS011;39307;52.870;13.660;2022-08-07T01:44:37;3.65;;;2.00;;
53411;SDS011;39307;52.870;13.660;2022-08-07T01:47:05;4.47;;;1.60;;
53411;SDS011;39307;52.870;13.660;2022-08-07T01:49:32;4.32;;;1.90;;
53411;SDS011;39307;52.870;13.660;2022-08-07T01:51:59;3.80;;;1.90;;
53411;SDS011;39307;52.870;13.660;2022-08-07T01:54:27;3.55;;;1.75;;
53411;SDS011;39307;52.870;13.660;2022-08-07T01:57:09;4.32;;;1.70;;
53411;SDS011;39307;52.870;13.660;2022-08-07T01:59:45;3.83;;;1.70;;
53411;SDS011;39307;52.870;13.660;2022-08-07T02:02:37;3.47;;;1.70;;
53411;SDS011;39307;52.870;13.660;2022-08-07T02:05:40;3.92;;;1.70;;
53411;SDS011;39307;52.870;13.660;2022-08-07T02:08:12;5.53;;;1.92;;
53411;SDS011;39307;52.870;13.660;2022-08-07T02:10:40;5.05;;;2.00;;
53411;SDS011;39307;52.870;13.660;2022-08-07T02:13:08;3.47;;;1.63;;
53411;SDS011;39307;52.870;13.660;2022-08-07T02:15:37;4.53;;;2.10;;
53411;SDS011;39307;52.870;13.660;2022-08-07T02:18:04;2.85;;;1.70;;
53411;SDS011;39307;52.870;13.660;2022-08-07T02:20:35;3.83;;;1.83;;
53411;SDS011;39307;52.870;13.660;2022-08-07T02:23:02;3.45;;;1.95;;
53411;SDS011;39307;52.870;13.660;2022-08-07T02:25:32;4.53;;;2.10;;
53411;SDS011;39307;52.870;13.660;2022-08-07T02:28:00;4.57;;;2.17;;
53411;SDS011;39307;52.870;13.660;2022-08-07T02:30:28;4.28;;;2.00;;
53411;SDS011;39307;52.870;13.660;2022-08-07T02:32:55;4.40;;;2.30;;
53411;SDS011;39307;52.870;13.660;2022-08-07T02:35:24;4.55;;;2.45;;
53411;SDS011;39307;52.870;13.660;2022-08-07T02:37:50;4.50;;;2.38;;
53411;SDS011;39307;52.870;13.660;2022-08-07T02:40:17;6.47;;;2.70;;
53411;SDS011;39307;52.870;13.660;2022-08-07T02:42:44;3.88;;;2.08;;
53411;SDS011;39307;52.870;13.660;2022-08-07T02:45:13;3.83;;;2.20;;
53411;SDS011;39307;52.870;13.660;2022-08-07T02:47:41;4.22;;;2.30;;
53411;SDS011;39307;52.870;13.660;2022-08-07T02:50:08;4.88;;;2.63;;
53411;SDS011;39307;52.870;13.660;2022-08-07T02:52:37;5.70;;;2.60;;
53411;SDS011;39307;52.870;13.660;2022-08-07T02:55:06;4.82;;;2.10;;
53411;SDS011;39307;52.870;13.660;2022-08-07T02:57:36;4.32;;;2.00;;
53411;SDS011;39307;52.870;13.660;2022-08-07T03:00:04;4.77;;;2.10;;
53411;SDS011;39307;52.870;13.660;2022-08-07T03:02:33;5.78;;;2.10;;
53411;SDS011;39307;52.870;13.660;2022-08-07T03:05:01;4.43;;;1.95;;
53411;SDS011;39307;52.870;13.660;2022-08-07T03:07:28;3.47;;;1.98;;
53411;SDS011;39307;52.870;13.660;2022-08-07T03:09:56;3.75;;;1.77;;
53411;SDS011;39307;52.870;13.660;2022-08-07T03:12:23;4.32;;;2.00;;
53411;SDS011;39307;52.870;13.660;2022-08-07T03:14:50;3.53;;;1.93;;
53411;SDS011;39307;52.870;13.660;2022-08-07T03:17:18;5.00;;;2.35;;
53411;SDS011;39307;52.870;13.660;2022-08-07T03:19:44;5.28;;;2.20;;
53411;SDS011;39307;52.870;13.660;2022-08-07T03:22:11;4.65;;;2.45;;
53411;SDS011;39307;52.870;13.660;2022-08-07T03:24:37;5.25;;;2.70;;
53411;SDS011;39307;52.870;13.660;2022-08-07T03:27:04;5.97;;;3.40;;
53411;SDS011;39307;52.870;13.660;2022-08-07T03:29:33;6.13;;;2.40;;
53411;SDS011;39307;52.870;13.660;2022-08-07T03:32:06;5.85;;;2.45;;
53411;SDS011;39307;52.870;13.660;2022-08-07T03:34:37;5.88;;;2.35;;
53411;SDS011;39307;52.870;13.660;2022-08-07T03:37:05;4.78;;;2.40;;
53411;SDS011;39307;52.870;13.660;2022-08-07T03:39:34;5.15;;;2.20;;
53411;SDS011;39307;52.870;13.660;2022-08-07T03:42:04;5.15;;;2.42;;
53411;SDS011;39307;52.870;13.660;2022-08-07T03:44:32;4.03;;;2.40;;
53411;SDS011;39307;52.870;13.660;2022-08-07T03:47:00;5.30;;;2.70;;
53411;SDS011;39307;52.870;13.660;2022-08-07T03:49:27;5.38;;;2.42;;
53411;SDS011;39307;52.870;13.660;2022-08-07T03:51:54;5.60;;;2.40;;
53411;SDS011;39307;52.870;13.660;2022-08-07T03:54:23;4.72;;;2.38;;
53411;SDS011;39307;52.870;13.660;2022-08-07T03:56:49;6.00;;;2.50;;
53411;SDS011;39307;52.870;13.660;2022-08-07T03:59:17;4.82;;;2.28;;
53411;SDS011;39307;52.870;13.660;2022-08-07T04:01:44;7.00;;;2.47;;
53411;SDS011;39307;52.870;13.660;2022-08-07T04:04:11;4.50;;;2.55;;
53411;SDS011;39307;52.870;13.660;2022-08-07T04:06:41;5.97;;;3.03;;
53411;SDS011;39307;52.870;13.660;2022-08-07T04:09:07;4.90;;;2.87;;
53411;SDS011;39307;52.870;13.660;2022-08-07T04:11:34;6.88;;;2.80;;
53411;SDS011;39307;52.870;13.660;2022-08-07T04:14:01;5.93;;;2.80;;
53411;SDS011;39307;52.870;13.660;2022-08-07T04:16:28;5.83;;;2.70;;
53411;SDS011;39307;52.870;13.660;2022-08-07T04:18:54;4.38;;;2.83;;
53411;SDS011;39307;52.870;13.660;2022-08-07T04:21:21;5.10;;;2.60;;
53411;SDS011;39307;52.870;13.660;2022-08-07T04:23:47;5.30;;;2.90;;
53411;SDS011;39307;52.870;13.660;2022-08-07T04:26:14;5.40;;;2.67;;
53411;SDS011;39307;52.870;13.660;2022-08-07T04:28:41;6.50;;;2.90;;
53411;SDS011;39307;52.870;13.660;2022-08-07T04:31:07;5.03;;;2.83;;
53411;SDS011;39307;52.870;13.660;2022-08-07T04:33:38;4.37;;;2.67;;
53411;SDS011;39307;52.870;13.660;2022-08-07T04:36:05;7.03;;;3.22;;
53411;SDS011;39307;52.870;13.660;2022-08-07T04:38:33;4.70;;;3.03;;
53411;SDS011;39307;52.870;13.660;2022-08-07T04:40:59;4.57;;;3.00;;
53411;SDS011;39307;52.870;13.660;2022-08-07T04:43:30;5.20;;;3.10;;
53411;SDS011;39307;52.870;13.660;2022-08-07T04:46:02;7.35;;;3.70;;
53411;SDS011;39307;52.870;13.660;2022-08-07T04:51:15;5.90;;;3.30;;
53411;SDS011;39307;52.870;13.660;2022-08-07T04:54:00;6.03;;;3.60;;
53411;SDS011;39307;52.870;13.660;2022-08-07T04:59:56;6.38;;;3.58;;
53411;SDS011;39307;52.870;13.660;2022-08-07T05:02:32;6.60;;;3.75;;
53411;SDS011;39307;52.870;13.660;2022-08-07T05:05:29;5.90;;;3.30;;
53411;SDS011;39307;52.870;13.660;2022-08-07T05:08:18;5.47;;;3.33;;
53411;SDS011;39307;52.870;13.660;2022-08-07T05:11:08;6.30;;;3.50;;
53411;SDS011;39307;52.870;13.660;2022-08-07T05:13:46;6.70;;;3.40;;
53411;SDS011;39307;52.870;13.660;2022-08-07T05:16:23;6.93;;;3.63;;
53411;SDS011;39307;52.870;13.660;2022-08-07T05:18:55;7.60;;;3.50;;
53411;SDS011;39307;52.870;13.660;2022-08-07T05:21:37;6.20;;;3.47;;
53411;SDS011;39307;52.870;13.660;2022-08-07T05:24:14;6.28;;;3.30;;
53411;SDS011;39307;52.870;13.660;2022-08-07T05:26:42;6.80;;;3.85;;
53411;SDS011;39307;52.870;13.660;2022-08-07T05:29:12;6.22;;;3.65;;
53411;SDS011;39307;52.870;13.660;2022-08-07T05:31:40;6.30;;;3.60;;
53411;SDS011;39307;52.870;13.660;2022-08-07T05:34:08;7.13;;;3.80;;
53411;SDS011;39307;52.870;13.660;2022-08-07T05:36:41;6.80;;;3.75;;
53411;SDS011;39307;52.870;13.660;2022-08-07T05:39:09;6.55;;;3.60;;
53411;SDS011;39307;52.870;13.660;2022-08-07T05:41:37;6.05;;;3.60;;
53411;SDS011;39307;52.870;13.660;2022-08-07T05:44:03;6.90;;;3.80;;
53411;SDS011;39307;52.870;13.660;2022-08-07T05:46:30;6.93;;;3.80;;
53411;SDS011;39307;52.870;13.660;2022-08-07T05:48:58;8.63;;;3.85;;
53411;SDS011;39307;52.870;13.660;2022-08-07T05:51:25;6.43;;;3.70;;
53411;SDS011;39307;52.870;13.660;2022-08-07T05:53:51;5.75;;;3.60;;
53411;SDS011;39307;52.870;13.660;2022-08-07T05:56:18;6.25;;;3.58;;
53411;SDS011;39307;52.870;13.660;2022-08-07T05:58:45;8.20;;;3.95;;
53411;SDS011;39307;52.870;13.660;2022-08-07T06:01:13;6.05;;;3.70;;
53411;SDS011;39307;52.870;13.660;2022-08-07T06:03:46;6.85;;;3.85;;
53411;SDS011;39307;52.870;13.660;2022-08-07T06:06:18;6.28;;;3.28;;
53411;SDS011;39307;52.870;13.660;2022-08-07T06:08:45;5.35;;;3.33;;
53411;SDS011;39307;52.870;13.660;2022-08-07T06:11:12;7.63;;;3.65;;
53411;SDS011;39307;52.870;13.660;2022-08-07T06:13:39;8.10;;;3.60;;
53411;SDS011;39307;52.870;13.660;2022-08-07T06:16:05;6.97;;;3.50;;
53411;SDS011;39307;52.870;13.660;2022-08-07T06:18:32;6.27;;;3.93;;
53411;SDS011;39307;52.870;13.660;2022-08-07T06:20:59;8.50;;;4.38;;
53411;SDS011;39307;52.870;13.660;2022-08-07T06:23:27;7.10;;;3.90;;
53411;SDS011;39307;52.870;13.660;2022-08-07T06:25:54;6.85;;;3.70;;
53411;SDS011;39307;52.870;13.660;2022-08-07T06:28:21;8.63;;;3.80;;
53411;SDS011;39307;52.870;13.660;2022-08-07T06:30:48;6.22;;;3.40;;
53411;SDS011;39307;52.870;13.660;2022-08-07T06:33:14;5.75;;;3.47;;
53411;SDS011;39307;52.870;13.660;2022-08-07T06:35:42;6.47;;;3.40;;
53411;SDS011;39307;52.870;13.660;2022-08-07T06:38:08;6.45;;;3.85;;
53411;SDS011;39307;52.870;13.660;2022-08-07T06:40:42;6.40;;;3.60;;
53411;SDS011;39307;52.870;13.660;2022-08-07T06:43:12;7.13;;;4.10;;
53411;SDS011;39307;52.870;13.660;2022-08-07T06:45:43;8.07;;;4.07;;
53411;SDS011;39307;52.870;13.660;2022-08-07T06:48:10;10.70;;;3.70;;
53411;SDS011;39307;52.870;13.660;2022-08-07T06:50:36;7.15;;;3.80;;
53411;SDS011;39307;52.870;13.660;2022-08-07T06:53:06;10.00;;;3.33;;
53411;SDS011;39307;52.870;13.660;2022-08-07T06:55:33;6.32;;;3.10;;
53411;SDS011;39307;52.870;13.660;2022-08-07T06:58:04;6.93;;;3.20;;
53411;SDS011;39307;52.870;13.660;2022-08-07T07:00:35;6.60;;;3.20;;
53411;SDS011;39307;52.870;13.660;2022-08-07T07:03:05;6.78;;;3.00;;
53411;SDS011;39307;52.870;13.660;2022-08-07T07:05:32;5.50;;;3.22;;
53411;SDS011;39307;52.870;13.660;2022-08-07T07:07:58;6.72;;;3.17;;
53411;SDS011;39307;52.870;13.660;2022-08-07T07:10:28;7.80;;;3.05;;
53411;SDS011;39307;52.870;13.660;2022-08-07T07:13:17;8.15;;;2.88;;
53411;SDS011;39307;52.870;13.660;2022-08-07T07:15:49;7.22;;;2.88;;
53411;SDS011;39307;52.870;13.660;2022-08-07T07:18:29;5.50;;;3.00;;
53411;SDS011;39307;52.870;13.660;2022-08-07T07:21:06;55.17;;;6.90;;
53411;SDS011;39307;52.870;13.660;2022-08-07T07:23:40;9.93;;;3.35;;
53411;SDS011;39307;52.870;13.660;2022-08-07T07:26:08;6.50;;;3.00;;
53411;SDS011;39307;52.870;13.660;2022-08-07T07:28:40;8.00;;;3.08;;
53411;SDS011;39307;52.870;13.660;2022-08-07T07:31:18;6.53;;;2.97;;
53411;SDS011;39307;52.870;13.660;2022-08-07T07:33:51;9.60;;;3.13;;
53411;SDS011;39307;52.870;13.660;2022-08-07T07:36:21;9.02;;;3.33;;
53411;SDS011;39307;52.870;13.660;2022-08-07T07:38:49;8.30;;;3.30;;
53411;SDS011;39307;52.870;13.660;2022-08-07T07:41:16;7.72;;;2.90;;
53411;SDS011;39307;52.870;13.660;2022-08-07T07:43:47;10.05;;;3.45;;
53411;SDS011;39307;52.870;13.660;2022-08-07T07:46:15;9.43;;;3.60;;
53411;SDS011;39307;52.870;13.660;2022-08-07T07:48:42;20.48;;;5.18;;
53411;SDS011;39307;52.870;13.660;2022-08-07T07:51:11;5.25;;;2.83;;
53411;SDS011;39307;52.870;13.660;2022-08-07T07:53:40;9.93;;;2.97;;
53411;SDS011;39307;52.870;13.660;2022-08-07T07:56:09;7.03;;;2.40;;
53411;SDS011;39307;52.870;13.660;2022-08-07T07:58:37;6.85;;;2.90;;
53411;SDS011;39307;52.870;13.660;2022-08-07T08:01:06;5.70;;;2.60;;
53411;SDS011;39307;52.870;13.660;2022-08-07T08:03:34;6.75;;;2.67;;
53411;SDS011;39307;52.870;13.660;2022-08-07T08:06:03;4.77;;;2.50;;
53411;SDS011;39307;52.870;13.660;2022-08-07T08:08:31;5.32;;;2.13;;
53411;SDS011;39307;52.870;13.660;2022-08-07T08:10:59;5.93;;;2.63;;
53411;SDS011;39307;52.870;13.660;2022-08-07T08:13:27;5.97;;;2.22;;
53411;SDS011;39307;52.870;13.660;2022-08-07T08:15:55;5.32;;;2.10;;
53411;SDS011;39307;52.870;13.660;2022-08-07T08:18:27;11.55;;;2.72;;
53411;SDS011;39307;52.870;13.660;2022-08-07T08:20:53;16.45;;;3.10;;
53411;SDS011;39307;52.870;13.660;2022-08-07T08:23:23;6.63;;;2.25;;
53411;SDS011;39307;52.870;13.660;2022-08-07T08:25:50;6.15;;;2.30;;
53411;SDS011;39307;52.870;13.660;2022-08-07T08:28:19;3.55;;;1.83;;
53411;SDS011;39307;52.870;13.660;2022-08-07T08:30:52;4.68;;;1.92;;
53411;SDS011;39307;52.870;13.660;2022-08-07T08:33:24;4.53;;;1.90;;
53411;SDS011;39307;52.870;13.660;2022-08-07T08:35:54;5.85;;;2.00;;
53411;SDS011;39307;52.870;13.660;2022-08-07T08:38:22;3.83;;;1.98;;
53411;SDS011;39307;52.870;13.660;2022-08-07T08:40:54;4.93;;;1.85;;
53411;SDS011;39307;52.870;13.660;2022-08-07T08:43:58;4.60;;;1.80;;
53411;SDS011;39307;52.870;13.660;2022-08-07T08:46:40;5.15;;;1.90;;
53411;SDS011;39307;52.870;13.660;2022-08-07T08:49:24;7.38;;;1.95;;
53411;SDS011;39307;52.870;13.660;2022-08-07T08:52:15;5.13;;;1.90;;
53411;SDS011;39307;52.870;13.660;2022-08-07T08:54:55;4.47;;;1.95;;
53411;SDS011;39307;52.870;13.660;2022-08-07T09:00:08;3.97;;;1.88;;
53411;SDS011;39307;52.870;13.660;2022-08-07T09:16:21;3.35;;;1.80;;
53411;SDS011;39307;52.870;13.660;2022-08-07T09:25:23;4.40;;;1.70;;
53411;SDS011;39307;52.870;13.660;2022-08-07T09:28:06;4.13;;;2.10;;
53411;SDS011;39307;52.870;13.660;2022-08-07T09:39:11;3.17;;;1.50;;
53411;SDS011;39307;52.870;13.660;2022-08-07T09:44:57;3.03;;;1.40;;
53411;SDS011;39307;52.870;13.660;2022-08-07T09:50:37;4.45;;;1.52;;
53411;SDS011;39307;52.870;13.660;2022-08-07T09:53:24;3.60;;;1.52;;
53411;SDS011;39307;52.870;13.660;2022-08-07T09:56:13;2.65;;;1.40;;
53411;SDS011;39307;52.870;13.660;2022-08-07T10:17:43;2.92;;;1.35;;
53411;SDS011;39307;52.870;13.660;2022-08-07T10:20:27;5.07;;;1.50;;
53411;SDS011;39307;52.870;13.660;2022-08-07T10:28:57;3.58;;;1.38;;
53411;SDS011;39307;52.870;13.660;2022-08-07T10:31:48;4.18;;;1.38;;
53411;SDS011;39307;52.870;13.660;2022-08-07T10:48:07;3.60;;;1.75;;
53411;SDS011;39307;52.870;13.660;2022-08-07T10:51:02;4.03;;;2.17;;
53411;SDS011;39307;52.870;13.660;2022-08-07T10:59:19;3.75;;;1.40;;
53411;SDS011;39307;52.870;13.660;2022-08-07T11:05:14;3.27;;;1.67;;
53411;SDS011;39307;52.870;13.660;2022-08-07T11:07:57;3.20;;;1.40;;
53411;SDS011;39307;52.870;13.660;2022-08-07T11:16:25;4.88;;;1.50;;
53411;SDS011;39307;52.870;13.660;2022-08-07T11:24:35;2.58;;;1.38;;
53411;SDS011;39307;52.870;13.660;2022-08-07T11:30:14;2.72;;;1.30;;
53411;SDS011;39307;52.870;13.660;2022-08-07T11:32:58;2.15;;;1.10;;
53411;SDS011;39307;52.870;13.660;2022-08-07T11:35:45;3.45;;;1.48;;
53411;SDS011;39307;52.870;13.660;2022-08-07T11:38:36;4.45;;;1.40;;
53411;SDS011;39307;52.870;13.660;2022-08-07T11:41:18;3.37;;;1.20;;
53411;SDS011;39307;52.870;13.660;2022-08-07T11:43:51;3.22;;;1.30;;
53411;SDS011;39307;52.870;13.660;2022-08-07T11:57:59;2.73;;;1.20;;
53411;SDS011;39307;52.870;13.660;2022-08-07T12:04:25;2.97;;;1.15;;
53411;SDS011;39307;52.870;13.660;2022-08-07T12:07:08;2.63;;;1.23;;
53411;SDS011;39307;52.870;13.660;2022-08-07T12:10:02;3.13;;;1.30;;
53411;SDS011;39307;52.870;13.660;2022-08-07T12:12:52;2.35;;;1.20;;
53411;SDS011;39307;52.870;13.660;2022-08-07T12:15:29;4.35;;;1.30;;
53411;SDS011;39307;52.870;13.660;2022-08-07T12:18:15;2.88;;;1.02;;
53411;SDS011;39307;52.870;13.660;2022-08-07T12:20:57;2.92;;;1.42;;
53411;SDS011;39307;52.870;13.660;2022-08-07T12:26:30;23.65;;;3.03;;
53411;SDS011;39307;52.870;13.660;2022-08-07T12:31:52;2.05;;;1.00;;
53411;SDS011;39307;52.870;13.660;2022-08-07T12:34:38;3.10;;;1.30;;
53411;SDS011;39307;52.870;13.660;2022-08-07T12:37:06;4.85;;;1.50;;
53411;SDS011;39307;52.870;13.660;2022-08-07T12:39:35;6.22;;;1.27;;
53411;SDS011;39307;52.870;13.660;2022-08-07T12:42:05;6.93;;;1.30;;
53411;SDS011;39307;52.870;13.660;2022-08-07T12:44:33;2.22;;;1.10;;
53411;SDS011;39307;52.870;13.660;2022-08-07T12:49:48;2.40;;;0.97;;
53411;SDS011;39307;52.870;13.660;2022-08-07T12:52:45;3.60;;;1.30;;
53411;SDS011;39307;52.870;13.660;2022-08-07T12:55:27;2.17;;;1.10;;
53411;SDS011;39307;52.870;13.660;2022-08-07T12:58:02;4.47;;;1.30;;
53411;SDS011;39307;52.870;13.660;2022-08-07T13:17:41;2.78;;;1.23;;
53411;SDS011;39307;52.870;13.660;2022-08-07T13:20:39;15.05;;;2.30;;
53411;SDS011;39307;52.870;13.660;2022-08-07T13:28:37;3.07;;;1.13;;
53411;SDS011;39307;52.870;13.660;2022-08-07T13:31:18;2.83;;;1.25;;
53411;SDS011;39307;52.870;13.660;2022-08-07T13:34:00;2.78;;;1.10;;
53411;SDS011;39307;52.870;13.660;2022-08-07T13:39:53;3.85;;;1.40;;
53411;SDS011;39307;52.870;13.660;2022-08-07T13:42:39;2.95;;;1.27;;
53411;SDS011;39307;52.870;13.660;2022-08-07T13:45:08;3.25;;;1.35;;
53411;SDS011;39307;52.870;13.660;2022-08-07T13:47:36;2.30;;;1.02;;
53411;SDS011;39307;52.870;13.660;2022-08-07T13:50:04;2.78;;;1.20;;
53411;SDS011;39307;52.870;13.660;2022-08-07T13:52:37;3.17;;;1.30;;
53411;SDS011;39307;52.870;13.660;2022-08-07T13:55:10;2.65;;;1.20;;
53411;SDS011;39307;52.870;13.660;2022-08-07T13:57:40;3.85;;;1.50;;
53411;SDS011;39307;52.870;13.660;2022-08-07T14:00:10;4.13;;;1.80;;
53411;SDS011;39307;52.870;13.660;2022-08-07T14:02:38;2.95;;;1.50;;
53411;SDS011;39307;52.870;13.660;2022-08-07T14:05:08;3.00;;;1.30;;
53411;SDS011;39307;52.870;13.660;2022-08-07T14:07:42;3.03;;;1.20;;
53411;SDS011;39307;52.870;13.660;2022-08-07T14:10:12;2.38;;;0.90;;
53411;SDS011;39307;52.870;13.660;2022-08-07T14:12:51;1.70;;;1.00;;
53411;SDS011;39307;52.870;13.660;2022-08-07T14:18:16;3.15;;;1.40;;
53411;SDS011;39307;52.870;13.660;2022-08-07T14:20:47;4.85;;;1.25;;
53411;SDS011;39307;52.870;13.660;2022-08-07T14:23:16;2.67;;;1.10;;
53411;SDS011;39307;52.870;13.660;2022-08-07T14:26:06;3.25;;;1.17;;
53411;SDS011;39307;52.870;13.660;2022-08-07T14:28:38;3.28;;;1.40;;
53411;SDS011;39307;52.870;13.660;2022-08-07T14:31:07;4.30;;;1.40;;
53411;SDS011;39307;52.870;13.660;2022-08-07T14:33:36;3.95;;;1.38;;
53411;SDS011;39307;52.870;13.660;2022-08-07T14:36:03;2.92;;;1.33;;
53411;SDS011;39307;52.870;13.660;2022-08-07T14:38:30;4.10;;;1.40;;
53411;SDS011;39307;52.870;13.660;2022-08-07T14:40:59;2.42;;;1.23;;
53411;SDS011;39307;52.870;13.660;2022-08-07T14:43:31;11.60;;;2.22;;
53411;SDS011;39307;52.870;13.660;2022-08-07T14:46:03;10.70;;;1.90;;
53411;SDS011;39307;52.870;13.660;2022-08-07T14:48:33;3.70;;;1.38;;
53411;SDS011;39307;52.870;13.660;2022-08-07T14:51:10;2.90;;;1.10;;
53411;SDS011;39307;52.870;13.660;2022-08-07T14:53:43;4.07;;;1.30;;
53411;SDS011;39307;52.870;13.660;2022-08-07T14:56:11;3.40;;;1.40;;
53411;SDS011;39307;52.870;13.660;2022-08-07T14:58:46;6.95;;;1.52;;
53411;SDS011;39307;52.870;13.660;2022-08-07T15:01:21;4.50;;;1.88;;
53411;SDS011;39307;52.870;13.660;2022-08-07T15:03:53;1.93;;;1.10;;
53411;SDS011;39307;52.870;13.660;2022-08-07T15:06:26;7.88;;;1.70;;
53411;SDS011;39307;52.870;13.660;2022-08-07T15:08:54;3.47;;;1.23;;
53411;SDS011;39307;52.870;13.660;2022-08-07T15:11:31;3.22;;;1.40;;
53411;SDS011;39307;52.870;13.660;2022-08-07T15:14:04;2.67;;;1.33;;
53411;SDS011;39307;52.870;13.660;2022-08-07T15:19:17;2.10;;;1.05;;
53411;SDS011;39307;52.870;13.660;2022-08-07T15:21:48;4.80;;;1.48;;
53411;SDS011;39307;52.870;13.660;2022-08-07T15:24:20;3.33;;;1.50;;
53411;SDS011;39307;52.870;13.660;2022-08-07T15:27:04;18.10;;;2.70;;
53411;SDS011;39307;52.870;13.660;2022-08-07T15:29:46;4.93;;;1.20;;
53411;SDS011;39307;52.870;13.660;2022-08-07T15:32:16;24.48;;;3.78;;
53411;SDS011;39307;52.870;13.660;2022-08-07T15:34:55;5.97;;;1.80;;
53411;SDS011;39307;52.870;13.660;2022-08-07T15:37:24;4.15;;;1.70;;
53411;SDS011;39307;52.870;13.660;2022-08-07T15:39:58;2.78;;;1.23;;
53411;SDS011;39307;52.870;13.660;2022-08-07T15:44:59;2.90;;;1.30;;
53411;SDS011;39307;52.870;13.660;2022-08-07T15:47:33;2.80;;;1.20;;
53411;SDS011;39307;52.870;13.660;2022-08-07T15:50:02;2.92;;;1.23;;
53411;SDS011;39307;52.870;13.660;2022-08-07T15:52:33;3.78;;;1.33;;
53411;SDS011;39307;52.870;13.660;2022-08-07T15:55:03;5.40;;;1.30;;
53411;SDS011;39307;52.870;13.660;2022-08-07T15:57:34;23.05;;;3.05;;
53411;SDS011;39307;52.870;13.660;2022-08-07T16:00:02;10.13;;;2.70;;
53411;SDS011;39307;52.870;13.660;2022-08-07T16:02:30;5.50;;;2.38;;
53411;SDS011;39307;52.870;13.660;2022-08-07T16:05:14;4.75;;;1.40;;
53411;SDS011;39307;52.870;13.660;2022-08-07T16:07:46;3.20;;;1.30;;
53411;SDS011;39307;52.870;13.660;2022-08-07T16:10:20;2.75;;;1.05;;
53411;SDS011;39307;52.870;13.660;2022-08-07T16:15:45;3.85;;;1.30;;
53411;SDS011;39307;52.870;13.660;2022-08-07T16:21:54;2.10;;;1.10;;
53411;SDS011;39307;52.870;13.660;2022-08-07T16:24:31;5.13;;;1.60;;
53411;SDS011;39307;52.870;13.660;2022-08-07T16:32:21;2.65;;;1.20;;
53411;SDS011;39307;52.870;13.660;2022-08-07T16:34:52;4.63;;;1.60;;
53411;SDS011;39307;52.870;13.660;2022-08-07T16:45:58;4.20;;;1.30;;
53411;SDS011;39307;52.870;13.660;2022-08-07T16:51:43;2.43;;;1.27;;
53411;SDS011;39307;52.870;13.660;2022-08-07T16:57:14;6.68;;;2.70;;
53411;SDS011;39307;52.870;13.660;2022-08-07T17:02:26;18.60;;;3.22;;
53411;SDS011;39307;52.870;13.660;2022-08-07T17:05:10;7.85;;;2.10;;
53411;SDS011;39307;52.870;13.660;2022-08-07T17:07:54;9.73;;;3.72;;
53411;SDS011;39307;52.870;13.660;2022-08-07T17:21:00;8.57;;;3.88;;
53411;SDS011;39307;52.870;13.660;2022-08-07T17:23:34;4.38;;;1.85;;
53411;SDS011;39307;52.870;13.660;2022-08-07T17:34:25;4.95;;;1.73;;
53411;SDS011;39307;52.870;13.660;2022-08-07T17:36:56;2.72;;;1.50;;
53411;SDS011;39307;52.870;13.660;2022-08-07T17:39:45;4.80;;;1.70;;
53411;SDS011;39307;52.870;13.660;2022-08-07T17:42:43;3.55;;;1.70;;
53411;SDS011;39307;52.870;13.660;2022-08-07T17:45:19;3.90;;;1.60;;
53411;SDS011;39307;52.870;13.660;2022-08-07T17:48:02;3.10;;;1.33;;
53411;SDS011;39307;52.870;13.660;2022-08-07T17:50:39;3.35;;;1.73;;
53411;SDS011;39307;52.870;13.660;2022-08-07T18:01:24;3.83;;;1.73;;
53411;SDS011;39307;52.870;13.660;2022-08-07T18:06:30;2.50;;;1.45;;
53411;SDS011;39307;52.870;13.660;2022-08-07T18:09:02;4.10;;;1.63;;
53411;SDS011;39307;52.870;13.660;2022-08-07T18:11:39;4.40;;;1.65;;
53411;SDS011;39307;52.870;13.660;2022-08-07T18:17:31;3.85;;;1.67;;
53411;SDS011;39307;52.870;13.660;2022-08-07T18:20:13;3.17;;;1.55;;
53411;SDS011;39307;52.870;13.660;2022-08-07T18:22:47;2.90;;;1.40;;
53411;SDS011;39307;52.870;13.660;2022-08-07T18:25:16;4.67;;;1.70;;
53411;SDS011;39307;52.870;13.660;2022-08-07T18:36:37;3.40;;;1.70;;
53411;SDS011;39307;52.870;13.660;2022-08-07T18:45:59;2.97;;;1.50;;
53411;SDS011;39307;52.870;13.660;2022-08-07T18:48:30;4.43;;;1.65;;
53411;SDS011;39307;52.870;13.660;2022-08-07T18:51:33;3.90;;;1.60;;
53411;SDS011;39307;52.870;13.660;2022-08-07T18:54:16;3.40;;;1.80;;
53411;SDS011;39307;52.870;13.660;2022-08-07T18:57:20;3.13;;;1.50;;
53411;SDS011;39307;52.870;13.660;2022-08-07T19:00:14;4.95;;;1.70;;
53411;SDS011;39307;52.870;13.660;2022-08-07T19:02:50;4.25;;;1.90;;
53411;SDS011;39307;52.870;13.660;2022-08-07T19:05:32;3.88;;;1.83;;